createdAt,value
2023-02-07T00:02:39.174Z,18.43
2023-02-07T00:06:42.052Z,15.77
2023-02-07T00:10:45.145Z,16.37
2023-02-07T00:14:48.089Z,17.67
2023-02-07T00:18:52.348Z,15.73
2023-02-07T00:22:55.595Z,16.53
2023-02-07T00:26:58.395Z,15.43
2023-02-07T00:31:06.989Z,14.37
2023-02-07T00:35:11.259Z,16.33
2023-02-07T00:39:16.909Z,14.57
2023-02-07T00:43:29.296Z,16.20
2023-02-07T00:47:32.918Z,16.37
2023-02-07T00:51:38.920Z,14.23
2023-02-07T00:55:42.739Z,17.13
2023-02-07T00:59:45.587Z,16.43
2023-02-07T01:03:48.434Z,14.87
2023-02-07T01:07:52.784Z,14.80
2023-02-07T01:11:55.681Z,15.73
2023-02-07T01:16:01.104Z,14.53
2023-02-07T01:20:05.154Z,16.00
2023-02-07T01:24:10.265Z,14.57
2023-02-07T01:28:14.132Z,14.87
2023-02-07T01:32:17.150Z,15.60
2023-02-07T01:36:20.022Z,14.47
2023-02-07T01:40:24.308Z,15.80
2023-02-07T01:45:00.849Z,15.17
2023-02-07T01:49:07.845Z,14.07
2023-02-07T01:53:16.143Z,16.03
2023-02-07T01:57:23.729Z,15.93
2023-02-07T02:01:27.762Z,15.53
2023-02-07T02:05:32.337Z,16.20
2023-02-07T02:09:35.646Z,15.70
2023-02-07T02:13:48.280Z,16.23
2023-02-07T02:18:03.809Z,16.23
2023-02-07T02:22:31.593Z,15.20
2023-02-07T02:26:56.844Z,16.80
2023-02-07T02:31:30.101Z,14.80
2023-02-07T02:35:38.982Z,15.10
2023-02-07T02:39:48.264Z,13.57
2023-02-07T02:43:55.972Z,15.00
2023-02-07T02:47:59.217Z,13.30
2023-02-07T02:52:03.553Z,15.60
2023-02-07T02:56:30.533Z,15.77
2023-02-07T03:00:43.515Z,15.50
2023-02-07T03:05:01.762Z,15.83
2023-02-07T03:09:18.587Z,15.27
2023-02-07T03:13:27.916Z,13.83
2023-02-07T03:17:40.597Z,13.37
2023-02-07T03:21:47.195Z,12.40
2023-02-07T03:25:53.606Z,13.70
2023-02-07T03:30:00.123Z,14.50
2023-02-07T03:34:09.450Z,13.03
2023-02-07T03:38:12.953Z,12.63
2023-02-07T03:42:22.792Z,13.70
2023-02-07T03:46:26.435Z,14.20
2023-02-07T03:50:29.362Z,14.27
2023-02-07T03:54:32.454Z,14.90
2023-02-07T03:58:36.616Z,14.17
2023-02-07T04:02:39.511Z,14.33
2023-02-07T04:06:42.340Z,13.63
2023-02-07T04:10:45.152Z,15.23
2023-02-07T04:14:49.323Z,13.47
2023-02-07T04:18:52.171Z,13.47
2023-02-07T04:22:54.953Z,12.83
2023-02-07T04:26:58.015Z,12.93
2023-02-07T04:31:04.120Z,13.40
2023-02-07T04:35:07.480Z,15.47
2023-02-07T04:39:10.626Z,15.10
2023-02-07T04:43:13.484Z,14.00
2023-02-07T04:47:17.691Z,13.80
2023-02-07T04:51:20.673Z,14.63
2023-02-07T04:55:23.758Z,14.60
2023-02-07T04:59:26.561Z,14.53
2023-02-07T05:03:30.777Z,13.03
2023-02-07T05:07:33.671Z,13.73
2023-02-07T05:11:37.610Z,14.33
2023-02-07T05:15:40.637Z,15.80
2023-02-07T05:19:45.019Z,14.50
2023-02-07T05:23:47.894Z,13.87
2023-02-07T05:27:50.913Z,13.73
2023-02-07T05:32:11.216Z,13.60
2023-02-07T05:36:15.433Z,15.40
2023-02-07T05:40:18.477Z,16.43
2023-02-07T05:44:21.331Z,14.90
2023-02-07T05:48:24.183Z,14.43
2023-02-07T05:52:28.411Z,14.53
2023-02-07T05:56:31.273Z,13.57
2023-02-07T06:00:34.269Z,14.90
2023-02-07T06:04:37.143Z,15.33
2023-02-07T06:08:41.331Z,14.93
2023-02-07T06:12:45.182Z,14.97
2023-02-07T06:16:48.041Z,15.80
2023-02-07T06:20:52.105Z,15.93
2023-02-07T06:24:56.344Z,16.67
2023-02-07T06:28:59.229Z,14.73
2023-02-07T06:33:02.068Z,16.93
2023-02-07T06:37:04.955Z,14.93
2023-02-07T06:41:11.189Z,17.27
2023-02-07T06:45:14.021Z,16.40
2023-02-07T06:49:16.852Z,17.63
2023-02-07T06:53:19.687Z,14.50
2023-02-07T06:57:23.883Z,15.63
2023-02-07T07:01:26.763Z,15.80
2023-02-07T07:05:30.427Z,17.67
2023-02-07T07:09:33.402Z,17.07
2023-02-07T07:13:37.955Z,19.73
2023-02-07T07:17:40.837Z,19.77
2023-02-07T07:21:43.700Z,20.63
2023-02-07T07:25:47.327Z,18.70
2023-02-07T07:29:51.622Z,17.77
2023-02-07T07:33:54.784Z,18.73
2023-02-07T07:37:57.662Z,20.10
2023-02-07T07:42:00.511Z,18.63
2023-02-07T07:46:23.909Z,18.83
2023-02-07T07:50:26.740Z,18.80
2023-02-07T07:54:30.247Z,19.03
2023-02-07T07:58:34.148Z,19.13
2023-02-07T08:02:38.399Z,19.37
2023-02-07T08:06:41.268Z,20.00
2023-02-07T08:10:44.498Z,20.43
2023-02-07T08:14:47.324Z,21.37
2023-02-07T08:18:51.549Z,18.63
2023-02-07T08:22:54.535Z,21.33
2023-02-07T08:26:57.400Z,17.47
2023-02-07T08:31:02.476Z,18.70
2023-02-07T08:35:07.429Z,16.87
2023-02-07T08:39:10.300Z,17.10
2023-02-07T08:43:13.227Z,17.80
2023-02-07T08:47:17.896Z,16.57
2023-02-07T08:51:22.143Z,16.63
2023-02-07T08:55:25.011Z,17.27
2023-02-07T08:59:27.931Z,18.30
2023-02-07T09:03:30.759Z,17.90
2023-02-07T09:07:34.949Z,18.00
2023-02-07T09:11:38.422Z,16.83
2023-02-07T09:15:41.921Z,17.23
2023-02-07T09:19:44.820Z,17.20
2023-02-07T09:23:49.111Z,18.07
2023-02-07T09:27:52.428Z,16.83
2023-02-07T09:31:55.561Z,16.27
2023-02-07T09:35:58.415Z,16.00
2023-02-07T09:40:03.004Z,14.03
2023-02-07T09:44:15.219Z,13.77
2023-02-07T09:48:22.604Z,14.20
2023-02-07T09:52:30.157Z,12.60
2023-02-07T09:56:36.568Z,12.67
2023-02-07T10:00:42.393Z,12.97
2023-02-07T10:04:49.354Z,12.60
2023-02-07T10:08:56.006Z,12.83
2023-02-07T10:13:11.595Z,11.37
2023-02-07T10:17:31.983Z,10.83
2023-02-07T10:21:42.171Z,10.83
2023-02-07T10:25:57.778Z,10.87
2023-02-07T10:30:11.440Z,9.33
2023-02-07T10:34:16.628Z,10.33
2023-02-07T10:38:30.740Z,10.40
2023-02-07T10:42:38.747Z,8.83
2023-02-07T10:46:45.420Z,8.90
2023-02-07T10:50:48.353Z,8.17
2023-02-07T10:54:54.768Z,8.60
2023-02-07T10:58:58.812Z,8.77
2023-02-07T11:03:07.372Z,7.20
2023-02-07T11:07:16.343Z,8.60
2023-02-07T11:11:27.044Z,8.17
2023-02-07T11:15:47.200Z,8.30
2023-02-07T11:19:51.476Z,8.33
2023-02-07T11:23:56.902Z,8.57
2023-02-07T11:28:00.384Z,8.23
2023-02-07T11:32:04.386Z,9.87
2023-02-07T11:36:13.022Z,7.93
2023-02-07T11:40:25.004Z,8.57
2023-02-07T11:44:30.705Z,8.63
2023-02-07T11:48:37.733Z,8.70
2023-02-07T11:52:52.208Z,8.23
2023-02-07T11:57:01.716Z,8.10
2023-02-07T12:01:08.132Z,7.33
2023-02-07T12:05:19.268Z,7.40
2023-02-07T12:09:31.999Z,7.37
2023-02-07T12:13:40.427Z,6.60
2023-02-07T12:17:58.814Z,6.37
2023-02-07T12:22:07.945Z,6.20
2023-02-07T12:26:20.949Z,6.80
2023-02-07T12:30:34.507Z,7.03
2023-02-07T12:34:44.756Z,6.17
2023-02-07T12:38:54.587Z,6.23
2023-02-07T12:43:03.688Z,6.43
2023-02-07T12:47:16.517Z,5.60
2023-02-07T12:51:33.258Z,5.07
2023-02-07T12:55:46.197Z,5.17
2023-02-07T13:00:04.745Z,5.90
2023-02-07T13:04:33.557Z,6.03
2023-02-07T13:08:45.635Z,6.43
2023-02-07T13:12:54.491Z,5.90
2023-02-07T13:17:15.566Z,6.17
2023-02-07T13:21:24.388Z,6.40
2023-02-07T13:25:31.382Z,6.20
2023-02-07T13:29:37.181Z,6.07
2023-02-07T13:33:42.113Z,6.30
2023-02-07T13:37:53.940Z,6.53
2023-02-07T13:42:09.919Z,6.13
2023-02-07T13:46:27.633Z,6.97
2023-02-07T13:50:40.941Z,5.60
2023-02-07T13:54:56.288Z,5.40
2023-02-07T13:59:16.949Z,6.97
2023-02-07T14:03:22.200Z,6.77
2023-02-07T14:07:29.731Z,6.73
2023-02-07T14:11:38.334Z,6.60
2023-02-07T14:15:57.525Z,6.53
2023-02-07T14:20:01.252Z,7.10
2023-02-07T14:24:20.257Z,7.63
2023-02-07T14:28:33.154Z,6.70
2023-02-07T14:32:43.263Z,6.60
2023-02-07T14:36:47.582Z,7.03
2023-02-07T14:41:10.205Z,7.13
2023-02-07T14:45:20.675Z,7.17
2023-02-07T14:49:31.299Z,7.00
2023-02-07T14:53:34.149Z,6.60
2023-02-07T14:57:47.316Z,6.60
2023-02-07T15:01:50.164Z,7.00
2023-02-07T15:05:55.809Z,7.97
2023-02-07T15:09:58.704Z,7.00
2023-02-07T15:14:04.998Z,7.10
2023-02-07T15:18:13.677Z,7.20
2023-02-07T15:22:26.794Z,7.17
2023-02-07T15:26:30.015Z,6.97
2023-02-07T15:30:34.915Z,6.83
2023-02-07T15:34:37.810Z,7.00
2023-02-07T15:38:41.040Z,7.07
2023-02-07T15:42:52.452Z,6.83
2023-02-07T15:46:58.888Z,7.20
2023-02-07T15:51:04.503Z,6.77
2023-02-07T15:55:19.030Z,6.83
2023-02-07T15:59:24.794Z,7.40
2023-02-07T16:03:31.834Z,7.70
2023-02-07T16:07:37.157Z,6.20
2023-02-07T16:11:41.260Z,7.37
2023-02-07T16:15:54.529Z,6.60
2023-02-07T16:19:58.890Z,7.10
2023-02-07T16:24:07.713Z,6.93
2023-02-07T16:28:16.583Z,13.40
2023-02-07T16:32:21.950Z,16.07
2023-02-07T16:36:35.713Z,12.23
2023-02-07T16:40:40.234Z,11.90
2023-02-07T16:44:46.501Z,11.27
2023-02-07T16:48:49.534Z,10.63
2023-02-07T16:52:57.197Z,9.77
2023-02-07T16:57:03.935Z,9.43
2023-02-07T17:01:08.790Z,9.20
2023-02-07T17:05:12.249Z,9.60
2023-02-07T17:09:18.443Z,8.87
2023-02-07T17:13:21.940Z,8.70
2023-02-07T17:17:33.830Z,10.37
2023-02-07T17:21:37.459Z,8.97
2023-02-07T17:25:44.491Z,8.97
2023-02-07T17:29:48.341Z,9.03
2023-02-07T17:33:52.174Z,9.30
2023-02-07T17:37:55.526Z,9.33
2023-02-07T17:42:03.014Z,9.87
2023-02-07T17:46:17.766Z,9.93
2023-02-07T17:50:23.665Z,10.40
2023-02-07T17:54:26.918Z,11.47
2023-02-07T17:58:31.647Z,11.97
2023-02-07T18:02:35.438Z,13.03
2023-02-07T18:06:38.291Z,13.07
2023-02-07T18:10:41.938Z,11.57
2023-02-07T18:14:47.074Z,12.93
2023-02-07T18:18:54.024Z,13.43
2023-02-07T18:23:00.273Z,13.10
2023-02-07T18:27:03.410Z,13.87
2023-02-07T18:31:16.161Z,12.90
2023-02-07T18:35:25.499Z,11.67
2023-02-07T18:39:29.198Z,12.40
2023-02-07T18:43:34.764Z,11.43
2023-02-07T18:47:39.182Z,11.87
2023-02-07T18:51:42.250Z,12.17
2023-02-07T18:55:45.383Z,12.77
2023-02-07T18:59:48.363Z,12.77
2023-02-07T19:04:20.668Z,14.63
2023-02-07T19:08:27.115Z,12.80
2023-02-07T19:12:44.600Z,13.67
2023-02-07T19:17:11.615Z,15.10
2023-02-07T19:21:20.893Z,17.40
2023-02-07T19:25:24.453Z,17.97
2023-02-07T19:29:30.196Z,17.07
2023-02-07T19:33:34.959Z,17.90
2023-02-07T19:37:45.183Z,16.40
2023-02-07T19:41:48.782Z,19.47
2023-02-07T19:45:53.995Z,23.03
2023-02-07T19:49:57.685Z,21.20
2023-02-07T19:54:04.013Z,20.50
2023-02-07T19:58:09.739Z,20.60
2023-02-07T20:02:14.846Z,20.80
2023-02-07T20:06:20.409Z,21.63
2023-02-07T20:10:24.951Z,20.03
2023-02-07T20:14:29.285Z,19.23
2023-02-07T20:18:33.524Z,18.73
2023-02-07T20:22:36.873Z,22.27
2023-02-07T20:26:43.918Z,22.80
2023-02-07T20:30:47.472Z,24.90
2023-02-07T20:34:50.716Z,26.00
2023-02-07T20:38:54.798Z,21.10
2023-02-07T20:42:59.324Z,20.17
2023-02-07T20:47:12.046Z,22.07
2023-02-07T20:51:14.895Z,21.00
2023-02-07T20:55:24.864Z,22.10
2023-02-07T20:59:41.656Z,21.27
2023-02-07T21:03:46.895Z,22.33
2023-02-07T21:07:49.812Z,23.97
2023-02-07T21:11:54.292Z,28.07
2023-02-07T21:16:05.406Z,25.40
2023-02-07T21:20:10.731Z,27.13
2023-02-07T21:24:14.753Z,26.90
2023-02-07T21:28:18.143Z,26.83
2023-02-07T21:32:24.523Z,24.23
2023-02-07T21:36:29.826Z,28.77
2023-02-07T21:40:33.188Z,29.60
2023-02-07T21:44:39.349Z,30.53
2023-02-07T21:49:03.800Z,32.00
2023-02-07T21:53:18.209Z,31.60
2023-02-07T21:57:21.838Z,34.07
2023-02-07T22:01:25.746Z,35.47
2023-02-07T22:05:30.038Z,36.70
2023-02-07T22:09:33.333Z,33.90
2023-02-07T22:13:38.423Z,32.03
2023-02-07T22:17:41.340Z,29.47
2023-02-07T22:21:51.926Z,34.00
2023-02-07T22:25:55.336Z,36.40
2023-02-07T22:29:58.479Z,32.13
2023-02-07T22:34:04.978Z,31.20
2023-02-07T22:38:10.947Z,32.00
2023-02-07T22:42:14.660Z,29.93
2023-02-07T22:46:19.594Z,27.50
2023-02-07T22:50:22.539Z,27.20
2023-02-07T22:54:26.889Z,25.77
2023-02-07T22:58:30.376Z,24.63
2023-02-07T23:02:33.675Z,26.20
2023-02-07T23:06:36.928Z,26.77
2023-02-07T23:10:43.426Z,26.60
2023-02-07T23:14:46.624Z,24.53
2023-02-07T23:18:50.637Z,26.27
2023-02-07T23:22:53.576Z,27.03
2023-02-07T23:26:57.935Z,27.87
2023-02-07T23:31:01.598Z,27.43
2023-02-07T23:35:05.559Z,28.37
2023-02-07T23:39:09.056Z,27.43
2023-02-07T23:43:13.888Z,29.83
2023-02-07T23:47:18.759Z,27.57
2023-02-07T23:51:22.734Z,28.77
2023-02-07T23:55:26.163Z,28.07
2023-02-07T23:59:32.375Z,27.47
